Time;durP1;ratioP1;P1;durP2;ratioP2;P2;SDS_P1;SDS_P2;PMS_P1;PMS_P2;Temp;Humidity;BMP_temperature;BMP_pressure;BME280_temperature;BME280_humidity;BME280_pressure;Samples;Min_cycle;Max_cycle;Signal;HPM_P1;HPM_P2
2021/08/23 00:00:41;;;;;;;1.50;1.23;;;;;;;;;;5081953;28;20036;-53
2021/08/23 00:03:07;;;;;;;1.98;1.20;;;;;;;;;;5085078;28;20034;-53
2021/08/23 00:05:33;;;;;;;1.10;0.95;;;;;;;;;;5084092;28;20024;-51
2021/08/23 00:07:59;;;;;;;1.65;1.10;;;;;;;;;;5084877;28;20410;-53
2021/08/23 00:10:25;;;;;;;1.35;0.90;;;;;;;;;;5083325;28;20028;-53
2021/08/23 00:12:51;;;;;;;2.03;1.30;;;;;;;;;;5073961;28;20276;-52
2021/08/23 00:15:18;;;;;;;1.35;1.17;;;;;;;;;;5069456;28;20040;-52
2021/08/23 00:17:44;;;;;;;1.67;1.27;;;;;;;;;;5082951;28;20035;-52
2021/08/23 00:20:13;;;;;;;1.48;1.02;;;;;;;;;;5086301;28;20027;-52
2021/08/23 00:22:51;;;;;;;1.33;1.00;;;;;;;;;;5086857;28;20031;-52
2021/08/23 00:25:18;;;;;;;2.00;1.15;;;;;;;;;;5084826;28;20039;-53
2021/08/23 00:27:44;;;;;;;1.13;0.90;;;;;;;;;;5086383;28;20025;-52
2021/08/23 00:30:11;;;;;;;1.47;0.80;;;;;;;;;;5086321;28;20097;-51
2021/08/23 00:32:37;;;;;;;1.50;1.10;;;;;;;;;;5086688;28;20016;-50
2021/08/23 00:35:04;;;;;;;1.20;1.00;;;;;;;;;;5084874;28;20028;-53
2021/08/23 00:37:30;;;;;;;1.17;1.02;;;;;;;;;;5068576;28;20034;-51
2021/08/23 00:39:56;;;;;;;1.52;0.88;;;;;;;;;;5065969;28;20103;-50
2021/08/23 00:42:22;;;;;;;1.27;1.02;;;;;;;;;;5065975;28;20056;-50
2021/08/23 00:44:48;;;;;;;1.50;0.98;;;;;;;;;;5066016;28;20542;-52
2021/08/23 00:47:14;;;;;;;1.05;0.88;;;;;;;;;;5076053;28;20032;-53
2021/08/23 00:49:41;;;;;;;1.00;0.90;;;;;;;;;;5086120;28;20032;-53
2021/08/23 00:52:08;;;;;;;1.10;0.90;;;;;;;;;;5086476;28;20024;-52
2021/08/23 00:54:34;;;;;;;1.35;0.90;;;;;;;;;;5086216;28;20367;-53
2021/08/23 00:57:01;;;;;;;1.95;1.10;;;;;;;;;;5084771;28;20478;-52
2021/08/23 00:59:28;;;;;;;1.10;0.93;;;;;;;;;;5085378;28;20032;-52
2021/08/23 01:01:57;;;;;;;1.52;0.90;;;;;;;;;;5085840;28;20032;-52
2021/08/23 01:04:27;;;;;;;0.82;0.80;;;;;;;;;;5068099;28;20089;-51
2021/08/23 01:06:53;;;;;;;0.90;0.75;;;;;;;;;;5076072;28;20024;-52
2021/08/23 01:09:20;;;;;;;0.80;0.77;;;;;;;;;;5065345;28;20592;-53
2021/08/23 01:11:50;;;;;;;1.52;1.10;;;;;;;;;;5065710;28;20029;-50
2021/08/23 01:14:16;;;;;;;1.73;1.15;;;;;;;;;;5073178;28;20032;-50
2021/08/23 01:16:42;;;;;;;1.52;0.95;;;;;;;;;;5079127;28;20028;-52
2021/08/23 01:19:08;;;;;;;1.10;0.82;;;;;;;;;;5066085;28;20602;-50
2021/08/23 01:21:34;;;;;;;0.80;0.80;;;;;;;;;;5065575;28;20021;-51
2021/08/23 01:24:02;;;;;;;1.58;1.15;;;;;;;;;;5065290;28;20036;-52
2021/08/23 01:26:31;;;;;;;2.03;1.15;;;;;;;;;;5068255;28;20028;-49
2021/08/23 01:29:08;;;;;;;1.13;1.00;;;;;;;;;;5085377;28;20020;-51
2021/08/23 01:32:10;;;;;;;0.98;0.90;;;;;;;;;;5085233;28;20024;-51
2021/08/23 01:34:36;;;;;;;0.80;0.80;;;;;;;;;;5063537;28;20102;-52
2021/08/23 01:37:04;;;;;;;0.93;0.82;;;;;;;;;;5082116;28;20067;-50
2021/08/23 01:39:33;;;;;;;1.20;0.77;;;;;;;;;;5088990;28;20038;-51
2021/08/23 01:42:00;;;;;;;1.48;1.02;;;;;;;;;;5088970;28;20016;-52
2021/08/23 01:44:26;;;;;;;0.93;0.75;;;;;;;;;;5088005;28;20131;-51
2021/08/23 01:46:52;;;;;;;0.90;0.80;;;;;;;;;;5068403;28;20052;-52
2021/08/23 01:49:18;;;;;;;0.70;0.70;;;;;;;;;;5068207;28;20091;-52
2021/08/23 01:51:45;;;;;;;2.03;1.00;;;;;;;;;;5066610;28;20029;-52
2021/08/23 01:54:11;;;;;;;1.17;0.85;;;;;;;;;;5087501;28;20078;-52
2021/08/23 01:56:37;;;;;;;1.35;1.00;;;;;;;;;;5088350;28;20205;-52
2021/08/23 01:59:03;;;;;;;1.08;0.85;;;;;;;;;;5088304;28;20579;-52
2021/08/23 02:01:30;;;;;;;1.50;1.02;;;;;;;;;;5088447;28;20486;-51
2021/08/23 02:03:56;;;;;;;3.28;1.38;;;;;;;;;;5088572;28;20102;-52
2021/08/23 02:06:23;;;;;;;1.30;1.00;;;;;;;;;;5087198;28;20031;-51
2021/08/23 02:08:49;;;;;;;1.15;1.05;;;;;;;;;;5088459;28;20043;-53
2021/08/23 02:11:15;;;;;;;1.48;1.00;;;;;;;;;;5088320;28;20387;-51
2021/08/23 02:13:42;;;;;;;0.88;0.88;;;;;;;;;;5087541;28;20439;-53
2021/08/23 02:16:08;;;;;;;1.33;1.20;;;;;;;;;;5088600;28;20024;-53
2021/08/23 02:18:34;;;;;;;0.93;0.85;;;;;;;;;;5086992;28;20074;-52
2021/08/23 02:21:00;;;;;;;1.98;0.93;;;;;;;;;;5087928;28;20024;-51
2021/08/23 02:23:26;;;;;;;1.38;0.98;;;;;;;;;;5088365;28;20036;-52
2021/08/23 02:25:53;;;;;;;1.23;1.00;;;;;;;;;;5086930;28;20028;-53
2021/08/23 02:28:19;;;;;;;1.10;0.88;;;;;;;;;;5086841;28;20495;-49
2021/08/23 02:30:45;;;;;;;1.25;1.00;;;;;;;;;;5087817;28;20437;-50
2021/08/23 02:33:11;;;;;;;0.98;0.80;;;;;;;;;;5087895;28;20032;-52
2021/08/23 02:35:37;;;;;;;2.13;1.05;;;;;;;;;;5088795;28;20023;-50
2021/08/23 02:38:03;;;;;;;2.10;1.10;;;;;;;;;;5075270;28;20399;-52
2021/08/23 02:40:29;;;;;;;1.27;1.00;;;;;;;;;;5067473;28;20082;-51
2021/08/23 02:42:56;;;;;;;1.33;1.00;;;;;;;;;;5067597;28;20028;-51
2021/08/23 02:45:22;;;;;;;1.17;0.93;;;;;;;;;;5072190;28;20021;-51
2021/08/23 02:47:48;;;;;;;2.65;1.10;;;;;;;;;;5086237;28;20039;-50
2021/08/23 02:50:14;;;;;;;1.02;0.80;;;;;;;;;;5087345;28;20386;-53
2021/08/23 02:52:40;;;;;;;1.70;1.08;;;;;;;;;;5088174;28;20020;-53
2021/08/23 02:55:06;;;;;;;1.75;1.30;;;;;;;;;;5088016;28;20059;-48
2021/08/23 02:57:32;;;;;;;1.35;0.90;;;;;;;;;;5078753;28;20082;-53
2021/08/23 02:59:58;;;;;;;1.92;1.10;;;;;;;;;;5072502;28;20031;-52
2021/08/23 03:02:25;;;;;;;1.25;0.90;;;;;;;;;;5087484;28;20437;-53
2021/08/23 03:04:51;;;;;;;1.15;1.00;;;;;;;;;;5087485;28;20447;-52
2021/08/23 03:07:17;;;;;;;1.17;0.98;;;;;;;;;;5086016;28;20858;-52
2021/08/23 03:09:43;;;;;;;1.10;0.90;;;;;;;;;;5087248;28;20638;-52
2021/08/23 03:12:09;;;;;;;1.50;0.98;;;;;;;;;;5087636;28;20062;-51
2021/08/23 03:14:35;;;;;;;1.08;0.90;;;;;;;;;;5087309;28;20016;-52
2021/08/23 03:17:01;;;;;;;1.58;1.00;;;;;;;;;;5082417;28;20020;-52
2021/08/23 03:19:27;;;;;;;0.80;0.80;;;;;;;;;;5066643;28;20783;-50
2021/08/23 03:21:53;;;;;;;0.90;0.80;;;;;;;;;;5066952;28;20037;-52
2021/08/23 03:24:19;;;;;;;1.02;0.80;;;;;;;;;;5066658;28;20020;-49
2021/08/23 03:26:45;;;;;;;1.10;0.88;;;;;;;;;;5066168;28;20028;-50
2021/08/23 03:29:12;;;;;;;1.08;0.90;;;;;;;;;;5066442;28;20594;-53
2021/08/23 03:31:41;;;;;;;1.40;1.10;;;;;;;;;;5067171;28;20065;-51
2021/08/23 03:34:12;;;;;;;1.25;0.93;;;;;;;;;;5066913;28;20028;-52
2021/08/23 03:36:40;;;;;;;1.38;1.10;;;;;;;;;;5070466;28;20031;-51
2021/08/23 03:39:07;;;;;;;1.13;0.82;;;;;;;;;;5085251;28;20032;-52
2021/08/23 03:41:33;;;;;;;1.20;0.85;;;;;;;;;;5082336;28;20035;-51
2021/08/23 03:43:59;;;;;;;1.05;0.82;;;;;;;;;;5086478;28;20067;-53
2021/08/23 03:46:27;;;;;;;1.63;1.25;;;;;;;;;;5065752;28;20763;-51
2021/08/23 03:48:53;;;;;;;1.75;1.00;;;;;;;;;;5066394;28;20021;-52
2021/08/23 03:51:19;;;;;;;1.50;1.10;;;;;;;;;;5066517;28;20108;-51
2021/08/23 03:53:45;;;;;;;1.05;0.95;;;;;;;;;;5066400;28;20099;-52
2021/08/23 03:56:11;;;;;;;1.17;1.00;;;;;;;;;;5065420;28;20530;-51
2021/08/23 03:58:38;;;;;;;1.05;0.90;;;;;;;;;;5084726;28;20502;-51
2021/08/23 04:01:04;;;;;;;1.38;0.98;;;;;;;;;;5085760;28;20035;-52
2021/08/23 04:03:30;;;;;;;1.40;0.98;;;;;;;;;;5087225;28;20086;-52
2021/08/23 04:05:57;;;;;;;0.82;0.80;;;;;;;;;;5085943;28;20490;-50
2021/08/23 04:08:23;;;;;;;1.60;1.15;;;;;;;;;;5067982;28;20132;-52
2021/08/23 04:10:49;;;;;;;1.15;0.85;;;;;;;;;;5065857;28;20471;-53
2021/08/23 04:13:15;;;;;;;1.85;1.05;;;;;;;;;;5066250;28;20553;-49
2021/08/23 04:15:45;;;;;;;1.67;0.90;;;;;;;;;;5065660;28;20043;-52
2021/08/23 04:18:12;;;;;;;1.48;1.00;;;;;;;;;;5081038;28;20062;-51
2021/08/23 04:20:38;;;;;;;1.35;1.00;;;;;;;;;;5086262;28;20151;-52
2021/08/23 04:23:04;;;;;;;1.10;1.00;;;;;;;;;;5086289;28;20024;-52
2021/08/23 04:25:30;;;;;;;1.45;1.02;;;;;;;;;;5086847;28;20654;-51
2021/08/23 04:27:56;;;;;;;1.88;0.90;;;;;;;;;;5085167;28;20036;-53
2021/08/23 04:30:22;;;;;;;0.88;0.80;;;;;;;;;;5086000;28;20028;-50
2021/08/23 04:32:49;;;;;;;1.13;0.60;;;;;;;;;;5086332;28;20387;-52
2021/08/23 04:35:15;;;;;;;0.90;0.70;;;;;;;;;;5086198;28;20019;-50
2021/08/23 04:37:41;;;;;;;0.80;0.75;;;;;;;;;;5085272;28;20574;-51
2021/08/23 04:40:07;;;;;;;0.80;0.68;;;;;;;;;;5085627;28;20382;-53
2021/08/23 04:42:34;;;;;;;1.40;0.82;;;;;;;;;;5086333;28;20519;-51
2021/08/23 04:45:00;;;;;;;1.17;0.77;;;;;;;;;;5085755;28;20106;-52
2021/08/23 04:47:26;;;;;;;1.00;0.90;;;;;;;;;;5085321;28;20089;-52
2021/08/23 04:49:52;;;;;;;2.70;0.77;;;;;;;;;;5083620;28;20044;-51
2021/08/23 04:52:18;;;;;;;0.93;0.73;;;;;;;;;;5065702;28;20380;-50
2021/08/23 04:54:45;;;;;;;0.65;0.65;;;;;;;;;;5065788;28;20047;-52
2021/08/23 04:57:11;;;;;;;1.23;0.90;;;;;;;;;;5066515;28;20020;-51
2021/08/23 04:59:37;;;;;;;1.98;1.00;;;;;;;;;;5081720;28;20486;-52
2021/08/23 05:02:03;;;;;;;1.05;0.70;;;;;;;;;;5085918;28;20075;-53
2021/08/23 05:04:29;;;;;;;1.10;0.77;;;;;;;;;;5086593;28;20032;-52
2021/08/23 05:06:55;;;;;;;0.75;0.70;;;;;;;;;;5084694;28;20598;-52
2021/08/23 05:09:21;;;;;;;0.70;0.70;;;;;;;;;;5085848;28;20024;-53
2021/08/23 05:11:47;;;;;;;1.10;0.77;;;;;;;;;;5082730;28;20032;-52
2021/08/23 05:14:13;;;;;;;1.00;0.70;;;;;;;;;;5074686;28;20534;-50
2021/08/23 05:16:39;;;;;;;0.80;0.70;;;;;;;;;;5072672;28;20467;-52
2021/08/23 05:19:06;;;;;;;1.05;0.70;;;;;;;;;;5089065;28;20036;-50
2021/08/23 05:21:32;;;;;;;1.17;0.70;;;;;;;;;;5090301;28;20024;-52
2021/08/23 05:23:59;;;;;;;0.85;0.70;;;;;;;;;;5090005;28;20503;-53
2021/08/23 05:26:25;;;;;;;0.65;0.60;;;;;;;;;;5075046;28;20025;-53
2021/08/23 05:28:51;;;;;;;1.52;0.80;;;;;;;;;;5069232;28;20020;-51
2021/08/23 05:31:17;;;;;;;1.05;0.80;;;;;;;;;;5070181;28;20345;-52
2021/08/23 05:33:43;;;;;;;1.08;0.82;;;;;;;;;;5069336;28;20526;-53
2021/08/23 05:36:09;;;;;;;0.63;0.63;;;;;;;;;;5078810;28;20028;-52
2021/08/23 05:38:35;;;;;;;0.60;0.60;;;;;;;;;;5087176;28;20441;-53
2021/08/23 05:41:01;;;;;;;1.00;0.80;;;;;;;;;;5086324;28;20391;-50
2021/08/23 05:43:27;;;;;;;1.23;0.82;;;;;;;;;;5073482;28;20029;-49
2021/08/23 05:45:55;;;;;;;0.93;0.70;;;;;;;;;;5068502;28;20103;-50
2021/08/23 05:48:21;;;;;;;1.25;0.80;;;;;;;;;;5068457;28;20024;-53
2021/08/23 05:50:48;;;;;;;0.77;0.70;;;;;;;;;;5085940;28;20550;-49
2021/08/23 05:53:14;;;;;;;0.75;0.68;;;;;;;;;;5088282;28;20509;-52
2021/08/23 05:55:40;;;;;;;0.55;0.50;;;;;;;;;;5080922;28;20032;-51
2021/08/23 05:58:06;;;;;;;1.52;1.20;;;;;;;;;;5086524;28;20119;-52
2021/08/23 06:00:32;;;;;;;1.20;0.73;;;;;;;;;;5068678;28;20502;-50
2021/08/23 06:02:58;;;;;;;0.70;0.70;;;;;;;;;;5068371;28;20025;-49
2021/08/23 06:05:24;;;;;;;1.20;0.85;;;;;;;;;;5077765;28;20017;-51
2021/08/23 06:07:50;;;;;;;0.77;0.73;;;;;;;;;;5068136;28;20538;-52
2021/08/23 06:10:16;;;;;;;1.77;1.00;;;;;;;;;;5068054;28;20869;-52
2021/08/23 06:12:43;;;;;;;1.23;0.80;;;;;;;;;;5069157;28;20147;-52
2021/08/23 06:15:09;;;;;;;1.55;1.00;;;;;;;;;;5069183;28;20102;-54
2021/08/23 06:17:35;;;;;;;1.25;0.90;;;;;;;;;;5068479;28;20327;-49
2021/08/23 06:20:01;;;;;;;1.48;0.73;;;;;;;;;;5068008;28;20074;-50
2021/08/23 06:22:27;;;;;;;0.77;0.70;;;;;;;;;;5067496;28;20046;-52
2021/08/23 06:24:53;;;;;;;1.52;0.90;;;;;;;;;;5070954;28;20030;-51
2021/08/23 06:27:20;;;;;;;1.00;0.80;;;;;;;;;;5071056;28;20554;-52
2021/08/23 06:29:46;;;;;;;1.13;0.80;;;;;;;;;;5080362;28;20032;-53
2021/08/23 06:32:12;;;;;;;0.70;0.70;;;;;;;;;;5068436;28;20754;-50
2021/08/23 06:34:38;;;;;;;2.17;0.80;;;;;;;;;;5070615;28;20047;-53
2021/08/23 06:37:04;;;;;;;0.60;0.60;;;;;;;;;;5087891;28;20479;-52
2021/08/23 06:39:30;;;;;;;0.82;0.60;;;;;;;;;;5079195;28;20020;-52
2021/08/23 06:41:56;;;;;;;0.85;0.85;;;;;;;;;;5068020;28;20435;-52
2021/08/23 06:44:22;;;;;;;0.80;0.80;;;;;;;;;;5067775;28;20025;-52
2021/08/23 06:46:48;;;;;;;0.90;0.80;;;;;;;;;;5067883;28;20064;-53
2021/08/23 06:49:14;;;;;;;0.80;0.80;;;;;;;;;;5072555;28;20140;-53
2021/08/23 06:51:40;;;;;;;1.05;0.70;;;;;;;;;;5087955;28;20521;-50
2021/08/23 06:54:06;;;;;;;0.60;0.60;;;;;;;;;;5086355;28;20024;-52
2021/08/23 06:56:33;;;;;;;0.93;0.70;;;;;;;;;;5087735;28;20069;-52
2021/08/23 06:58:59;;;;;;;1.00;0.75;;;;;;;;;;5085317;28;20452;-52
2021/08/23 07:01:26;;;;;;;1.13;0.70;;;;;;;;;;5087581;28;20103;-52
2021/08/23 07:03:53;;;;;;;0.85;0.70;;;;;;;;;;5086542;28;20061;-51
2021/08/23 07:06:19;;;;;;;0.70;0.70;;;;;;;;;;5087012;28;20024;-52
2021/08/23 07:08:45;;;;;;;1.08;0.88;;;;;;;;;;5086647;28;20035;-52
2021/08/23 07:11:12;;;;;;;0.60;0.60;;;;;;;;;;5085078;28;20024;-49
2021/08/23 07:13:38;;;;;;;0.82;0.68;;;;;;;;;;5080163;28;20101;-53
2021/08/23 07:16:05;;;;;;;0.82;0.70;;;;;;;;;;5084424;28;20052;-53
2021/08/23 07:18:31;;;;;;;0.57;0.57;;;;;;;;;;5066750;28;20054;-51
2021/08/23 07:20:57;;;;;;;0.93;0.73;;;;;;;;;;5066611;28;20082;-52
2021/08/23 07:23:24;;;;;;;0.68;0.60;;;;;;;;;;5068803;28;20581;-48
2021/08/23 07:25:50;;;;;;;0.73;0.68;;;;;;;;;;5079251;28;20024;-52
2021/08/23 07:28:17;;;;;;;0.63;0.50;;;;;;;;;;5083765;28;20040;-52
2021/08/23 07:30:43;;;;;;;0.60;0.60;;;;;;;;;;5073853;28;20038;-51
2021/08/23 07:33:09;;;;;;;0.68;0.50;;;;;;;;;;5070440;28;20056;-51
2021/08/23 07:35:36;;;;;;;0.65;0.60;;;;;;;;;;5078938;28;20038;-52
2021/08/23 07:38:03;;;;;;;0.68;0.55;;;;;;;;;;5070834;28;20091;-53
2021/08/23 07:40:29;;;;;;;1.15;0.93;;;;;;;;;;5066809;28;20403;-50
2021/08/23 07:42:55;;;;;;;0.80;0.60;;;;;;;;;;5066040;28;20028;-51
2021/08/23 07:45:21;;;;;;;0.60;0.60;;;;;;;;;;5081502;28;20108;-52
2021/08/23 07:47:49;;;;;;;0.77;0.63;;;;;;;;;;5074602;28;20017;-53
2021/08/23 07:50:16;;;;;;;0.70;0.57;;;;;;;;;;5077466;28;20099;-48
2021/08/23 07:52:43;;;;;;;1.27;0.80;;;;;;;;;;5084003;28;20050;-50
2021/08/23 07:55:10;;;;;;;1.45;0.70;;;;;;;;;;5073577;28;20025;-50
2021/08/23 07:57:46;;;;;;;0.98;0.57;;;;;;;;;;5064226;28;20577;-51
2021/08/23 08:00:13;;;;;;;1.52;0.73;;;;;;;;;;5066713;28;20035;-51
2021/08/23 08:02:40;;;;;;;0.50;0.50;;;;;;;;;;5066097;28;20044;-53
2021/08/23 08:05:07;;;;;;;0.63;0.63;;;;;;;;;;5066681;28;20071;-53
2021/08/23 08:07:33;;;;;;;0.50;0.50;;;;;;;;;;5066322;28;20085;-53
2021/08/23 08:09:59;;;;;;;1.50;0.63;;;;;;;;;;5066226;28;20036;-52
2021/08/23 08:12:25;;;;;;;0.52;0.50;;;;;;;;;;5083810;28;20433;-52
2021/08/23 08:14:54;;;;;;;0.70;0.70;;;;;;;;;;5086586;28;20016;-52
2021/08/23 08:17:20;;;;;;;0.73;0.50;;;;;;;;;;5066843;28;20361;-52
2021/08/23 08:19:46;;;;;;;2.40;1.13;;;;;;;;;;5066398;28;20665;-52
2021/08/23 08:22:13;;;;;;;1.45;0.70;;;;;;;;;;5066035;28;20037;-51
2021/08/23 08:24:39;;;;;;;0.90;0.70;;;;;;;;;;5069252;28;20374;-51
2021/08/23 08:27:05;;;;;;;0.93;0.68;;;;;;;;;;5072691;28;20024;-52
2021/08/23 08:29:32;;;;;;;0.50;0.50;;;;;;;;;;5078380;28;20060;-52
2021/08/23 08:31:58;;;;;;;0.70;0.60;;;;;;;;;;5075166;28;20028;-52
2021/08/23 08:34:25;;;;;;;0.50;0.50;;;;;;;;;;5076776;28;20052;-51
2021/08/23 08:36:51;;;;;;;0.90;0.70;;;;;;;;;;5086542;28;20021;-52
2021/08/23 08:39:17;;;;;;;0.43;0.43;;;;;;;;;;5068222;28;20836;-52
2021/08/23 08:41:43;;;;;;;0.50;0.50;;;;;;;;;;5079676;28;20031;-50
2021/08/23 08:44:09;;;;;;;0.52;0.50;;;;;;;;;;5078636;28;20511;-53
2021/08/23 08:46:35;;;;;;;1.05;0.68;;;;;;;;;;5074903;28;20050;-52
2021/08/23 08:49:02;;;;;;;0.50;0.50;;;;;;;;;;5089620;28;20538;-52
2021/08/23 08:51:29;;;;;;;0.52;0.40;;;;;;;;;;5086092;28;20028;-52
2021/08/23 08:53:55;;;;;;;0.85;0.50;;;;;;;;;;5089672;28;20099;-52
2021/08/23 08:56:21;;;;;;;0.80;0.50;;;;;;;;;;5087450;28;20094;-50
2021/08/23 08:58:47;;;;;;;0.50;0.40;;;;;;;;;;5090901;28;20024;-52
2021/08/23 09:01:13;;;;;;;0.70;0.60;;;;;;;;;;5083270;28;20483;-52
2021/08/23 09:03:44;;;;;;;0.90;0.47;;;;;;;;;;5087116;28;20028;-49
2021/08/23 09:06:11;;;;;;;0.47;0.47;;;;;;;;;;5082705;28;20039;-52
2021/08/23 09:08:41;;;;;;;0.50;0.50;;;;;;;;;;5075522;28;20420;-51
2021/08/23 09:11:14;;;;;;;0.77;0.60;;;;;;;;;;5088040;28;20060;-51
2021/08/23 09:13:41;;;;;;;0.50;0.43;;;;;;;;;;5089318;28;20024;-52
2021/08/23 09:16:08;;;;;;;0.85;0.50;;;;;;;;;;5088172;28;20482;-51
2021/08/23 09:33:07;;;;;;;0.30;0.30;;;;;;;;;;5060211;28;20419;-51
2021/08/23 09:35:35;;;;;;;0.68;0.40;;;;;;;;;;5053395;27;20037;-51
2021/08/23 09:38:02;;;;;;;0.68;0.50;;;;;;;;;;5048303;28;20100;-51
2021/08/23 09:40:33;;;;;;;0.30;0.30;;;;;;;;;;5045599;28;20028;-52
2021/08/23 09:43:08;;;;;;;0.30;0.30;;;;;;;;;;5059718;28;20039;-51
2021/08/23 09:45:34;;;;;;;0.98;0.50;;;;;;;;;;5059722;28;20085;-50
2021/08/23 09:48:01;;;;;;;0.70;0.50;;;;;;;;;;5059866;28;20404;-51
2021/08/23 09:50:27;;;;;;;0.50;0.50;;;;;;;;;;5058541;27;20024;-52
2021/08/23 09:52:53;;;;;;;0.40;0.40;;;;;;;;;;5058809;27;20372;-52
2021/08/23 09:55:19;;;;;;;1.00;0.65;;;;;;;;;;5059981;28;20085;-52
2021/08/23 09:57:45;;;;;;;0.50;0.50;;;;;;;;;;5059820;28;20384;-48
2021/08/23 10:00:12;;;;;;;2.05;0.63;;;;;;;;;;5059625;28;20499;-48
2021/08/23 10:02:45;;;;;;;0.50;0.50;;;;;;;;;;5057871;28;20548;-51
2021/08/23 10:05:15;;;;;;;0.70;0.60;;;;;;;;;;5053684;28;20025;-51
2021/08/23 10:07:41;;;;;;;1.00;0.70;;;;;;;;;;5059120;28;20025;-49
2021/08/23 10:10:07;;;;;;;1.92;0.63;;;;;;;;;;5059793;27;20878;-50
2021/08/23 10:12:33;;;;;;;1.00;0.73;;;;;;;;;;5058924;28;20113;-51
2021/08/23 10:15:00;;;;;;;0.70;0.60;;;;;;;;;;5059216;28;20021;-51
2021/08/23 10:17:27;;;;;;;1.40;0.70;;;;;;;;;;5059657;28;20035;-51
2021/08/23 14:34:26;;;;;;;0.90;0.90;;;;;;;;;;6129736;23;1344893;-60
2021/08/23 14:36:52;;;;;;;0.60;0.60;;;;;;;;;;6151611;23;20883;-60
2021/08/23 14:39:18;;;;;;;0.70;0.70;;;;;;;;;;6148036;23;20006;-60
2021/08/23 14:41:44;;;;;;;1.10;1.00;;;;;;;;;;6151995;23;20010;-60
2021/08/23 14:44:10;;;;;;;0.98;0.90;;;;;;;;;;6152632;23;20033;-61
2021/08/23 14:46:36;;;;;;;2.72;0.90;;;;;;;;;;6153000;23;20036;-62
2021/08/23 14:49:06;;;;;;;0.70;0.70;;;;;;;;;;6149123;23;20056;-60
2021/08/23 14:51:36;;;;;;;1.13;0.90;;;;;;;;;;6152213;23;20025;-60
2021/08/23 14:54:04;;;;;;;1.10;0.73;;;;;;;;;;6152087;23;20029;-60
2021/08/23 14:56:30;;;;;;;0.68;0.68;;;;;;;;;;6150804;23;20001;-61
2021/08/23 14:58:58;;;;;;;0.80;0.80;;;;;;;;;;6151449;23;20322;-60
2021/08/23 15:01:24;;;;;;;1.00;0.90;;;;;;;;;;6151605;23;20093;-61
2021/08/23 15:03:50;;;;;;;0.88;0.80;;;;;;;;;;6152549;23;20002;-61
2021/08/23 15:06:17;;;;;;;1.38;0.60;;;;;;;;;;6152619;23;20005;-60
2021/08/23 15:08:43;;;;;;;1.27;0.70;;;;;;;;;;6152439;23;20080;-60
2021/08/23 15:11:09;;;;;;;0.85;0.80;;;;;;;;;;6151906;23;20008;-60
2021/08/23 15:13:35;;;;;;;1.10;0.73;;;;;;;;;;6151960;23;20006;-60
2021/08/23 15:16:01;;;;;;;0.60;0.60;;;;;;;;;;6151664;23;20377;-61
2021/08/23 15:18:27;;;;;;;0.80;0.80;;;;;;;;;;6151436;23;20005;-61
2021/08/23 15:20:53;;;;;;;0.77;0.77;;;;;;;;;;6152118;23;20032;-60
2021/08/23 15:23:21;;;;;;;0.73;0.70;;;;;;;;;;6152433;23;20002;-60
2021/08/23 15:25:48;;;;;;;1.15;0.88;;;;;;;;;;6151327;23;19997;-60
2021/08/23 15:28:14;;;;;;;0.70;0.70;;;;;;;;;;6151165;23;20032;-61
2021/08/23 15:30:40;;;;;;;0.70;0.70;;;;;;;;;;6151394;23;19998;-61
2021/08/23 15:33:09;;;;;;;0.70;0.70;;;;;;;;;;6150738;23;20005;-61
2021/08/23 15:35:36;;;;;;;0.85;0.80;;;;;;;;;;6147932;23;20442;-60
2021/08/23 15:38:02;;;;;;;0.70;0.70;;;;;;;;;;6151809;23;20002;-61
2021/08/23 15:40:28;;;;;;;1.30;0.75;;;;;;;;;;6152115;23;20002;-61
2021/08/23 15:42:55;;;;;;;0.65;0.55;;;;;;;;;;6152399;23;20068;-60
2021/08/23 15:45:21;;;;;;;0.60;0.60;;;;;;;;;;6151992;23;20012;-60
2021/08/23 15:47:47;;;;;;;0.80;0.80;;;;;;;;;;6150417;23;20080;-60
2021/08/23 15:50:13;;;;;;;0.65;0.65;;;;;;;;;;6150568;23;20021;-60
2021/08/23 15:52:40;;;;;;;0.93;0.80;;;;;;;;;;6150649;23;20028;-60
2021/08/23 15:55:06;;;;;;;3.25;1.00;;;;;;;;;;6150285;23;20534;-61
2021/08/23 15:57:33;;;;;;;1.08;0.70;;;;;;;;;;6150468;23;20006;-60
2021/08/23 15:59:59;;;;;;;0.80;0.70;;;;;;;;;;6149073;23;20028;-60
2021/08/23 16:02:25;;;;;;;1.00;0.90;;;;;;;;;;6150121;23;20500;-60
2021/08/23 16:04:51;;;;;;;0.60;0.60;;;;;;;;;;6151552;23;20001;-61
2021/08/23 16:07:17;;;;;;;1.17;0.73;;;;;;;;;;6150309;23;20521;-60
2021/08/23 16:09:43;;;;;;;0.65;0.65;;;;;;;;;;6148873;23;21009;-60
2021/08/23 16:12:09;;;;;;;0.70;0.70;;;;;;;;;;6149771;23;20002;-61
2021/08/23 16:14:35;;;;;;;0.75;0.60;;;;;;;;;;6150477;23;20005;-60
2021/08/23 16:17:02;;;;;;;0.68;0.60;;;;;;;;;;6150594;23;20005;-60
2021/08/23 16:19:28;;;;;;;1.05;0.80;;;;;;;;;;6151135;23;20001;-60
2021/08/23 16:21:54;;;;;;;0.75;0.73;;;;;;;;;;6150638;23;20390;-60
2021/08/23 16:24:25;;;;;;;0.60;0.60;;;;;;;;;;6152206;23;20419;-60
2021/08/23 16:26:51;;;;;;;0.70;0.70;;;;;;;;;;6151305;23;20009;-61
2021/08/23 16:29:23;;;;;;;1.30;0.70;;;;;;;;;;6150948;23;20021;-60
2021/08/23 16:31:50;;;;;;;1.08;0.98;;;;;;;;;;6151070;23;20029;-60
2021/08/23 16:34:16;;;;;;;0.80;0.80;;;;;;;;;;6149793;23;20005;-61
2021/08/23 16:36:42;;;;;;;1.00;0.73;;;;;;;;;;6150996;23;20432;-61
2021/08/23 16:39:08;;;;;;;0.70;0.70;;;;;;;;;;6151258;23;20414;-61
2021/08/23 16:41:34;;;;;;;1.27;1.00;;;;;;;;;;6150594;23;20036;-60
2021/08/23 16:44:01;;;;;;;1.35;0.80;;;;;;;;;;6150947;23;20006;-61
2021/08/23 16:46:27;;;;;;;1.10;0.70;;;;;;;;;;6151234;23;20505;-60
2021/08/23 16:48:53;;;;;;;0.70;0.70;;;;;;;;;;6151252;23;20527;-60
2021/08/23 16:51:19;;;;;;;1.05;0.80;;;;;;;;;;6151329;23;20012;-61
2021/08/23 16:53:45;;;;;;;1.00;0.90;;;;;;;;;;6150540;23;20012;-60
2021/08/23 16:56:12;;;;;;;0.70;0.70;;;;;;;;;;6151208;23;20339;-60
2021/08/23 16:58:38;;;;;;;1.17;0.85;;;;;;;;;;6150096;23;20137;-61
2021/08/23 17:01:04;;;;;;;0.85;0.80;;;;;;;;;;6150538;23;20477;-61
2021/08/23 17:03:30;;;;;;;1.63;0.90;;;;;;;;;;6151226;23;20415;-61
2021/08/23 17:05:56;;;;;;;2.53;1.02;;;;;;;;;;6150827;23;20002;-61
2021/08/23 17:08:22;;;;;;;0.80;0.70;;;;;;;;;;6151725;23;20414;-61
2021/08/23 17:10:48;;;;;;;0.93;0.90;;;;;;;;;;6149963;23;20446;-61
2021/08/23 17:13:14;;;;;;;1.73;1.05;;;;;;;;;;6149984;23;20002;-61
2021/08/23 17:15:40;;;;;;;1.10;0.95;;;;;;;;;;6150568;23;20002;-60
2021/08/23 17:18:06;;;;;;;1.10;0.80;;;;;;;;;;6150955;23;20468;-60
2021/08/23 17:20:32;;;;;;;1.05;0.93;;;;;;;;;;6150224;23;20036;-60
2021/08/23 17:22:58;;;;;;;0.70;0.70;;;;;;;;;;6150630;23;20300;-61
2021/08/23 17:25:24;;;;;;;1.08;0.98;;;;;;;;;;6149041;23;20462;-63
2021/08/23 17:27:50;;;;;;;2.30;1.00;;;;;;;;;;6123705;23;20032;-62
2021/08/23 17:30:16;;;;;;;1.02;0.93;;;;;;;;;;6148192;23;20009;-63
2021/08/23 17:32:43;;;;;;;0.73;0.73;;;;;;;;;;6122739;23;20009;-63
2021/08/23 17:35:09;;;;;;;1.58;1.10;;;;;;;;;;6148996;23;20009;-63
2021/08/23 17:37:35;;;;;;;0.82;0.82;;;;;;;;;;6149548;23;20335;-62
2021/08/23 17:40:01;;;;;;;0.90;0.90;;;;;;;;;;6149334;23;20088;-62
2021/08/23 17:42:27;;;;;;;0.80;0.80;;;;;;;;;;6124957;23;20010;-62
2021/08/23 17:44:53;;;;;;;1.65;0.80;;;;;;;;;;6151461;23;20010;-63
2021/08/23 17:47:19;;;;;;;2.05;0.98;;;;;;;;;;6151402;23;20584;-62
2021/08/23 17:49:45;;;;;;;1.98;1.10;;;;;;;;;;6151052;23;20029;-63
2021/08/23 17:52:11;;;;;;;0.73;0.73;;;;;;;;;;6151189;23;20027;-63
2021/08/23 17:54:37;;;;;;;0.95;0.85;;;;;;;;;;6150649;23;20063;-63
2021/08/23 17:57:04;;;;;;;0.90;0.80;;;;;;;;;;6149499;23;20080;-62
2021/08/23 17:59:30;;;;;;;0.85;0.80;;;;;;;;;;6149088;23;20008;-62
2021/08/23 18:01:56;;;;;;;1.27;0.90;;;;;;;;;;6148510;23;20025;-63
2021/08/23 18:04:22;;;;;;;1.45;0.90;;;;;;;;;;6148913;23;20076;-62
2021/08/23 18:06:48;;;;;;;0.80;0.80;;;;;;;;;;6122676;23;20473;-62
2021/08/23 18:09:14;;;;;;;1.17;1.00;;;;;;;;;;6122907;23;20009;-63
2021/08/23 18:11:40;;;;;;;1.00;0.88;;;;;;;;;;6148806;23;20008;-62
2021/08/23 18:14:06;;;;;;;1.35;0.80;;;;;;;;;;6149164;23;20009;-62
2021/08/23 18:16:32;;;;;;;1.10;0.90;;;;;;;;;;6147805;23;20076;-62
2021/08/23 18:18:58;;;;;;;1.27;0.73;;;;;;;;;;6147998;23;20394;-63
2021/08/23 18:21:24;;;;;;;0.85;0.85;;;;;;;;;;6149349;23;20021;-62
2021/08/23 18:23:51;;;;;;;1.20;0.98;;;;;;;;;;6148291;23;20338;-62
2021/08/23 18:26:18;;;;;;;1.42;1.00;;;;;;;;;;6122188;23;20009;-62
2021/08/23 18:28:46;;;;;;;1.13;1.00;;;;;;;;;;6122134;23;20017;-62
2021/08/23 18:31:12;;;;;;;1.20;1.00;;;;;;;;;;6145713;23;20006;-62
2021/08/23 18:33:38;;;;;;;1.10;1.00;;;;;;;;;;6120522;23;20450;-63
2021/08/23 18:36:04;;;;;;;1.63;1.20;;;;;;;;;;6121349;23;20472;-62
2021/08/23 18:38:30;;;;;;;1.17;1.00;;;;;;;;;;6148447;23;20040;-62
2021/08/23 18:40:58;;;;;;;1.13;0.88;;;;;;;;;;6147833;23;20001;-65
2021/08/23 18:43:33;;;;;;;1.20;1.00;;;;;;;;;;6146363;23;20005;-62
2021/08/23 18:46:01;;;;;;;1.58;1.27;;;;;;;;;;6120027;23;20057;-63
2021/08/23 18:48:28;;;;;;;1.10;0.80;;;;;;;;;;6146613;23;20113;-62
2021/08/23 18:50:55;;;;;;;1.38;1.17;;;;;;;;;;6146164;23;20012;-62
2021/08/23 18:53:22;;;;;;;1.23;0.90;;;;;;;;;;6146482;23;20048;-62
2021/08/23 18:55:49;;;;;;;1.10;0.90;;;;;;;;;;6145996;23;20028;-63
2021/08/23 18:58:16;;;;;;;0.82;0.82;;;;;;;;;;6145780;23;20466;-62
2021/08/23 19:00:42;;;;;;;1.55;1.10;;;;;;;;;;6146583;23;20025;-62
2021/08/23 19:03:09;;;;;;;1.08;0.98;;;;;;;;;;6145021;23;19998;-63
2021/08/23 19:05:36;;;;;;;0.93;0.85;;;;;;;;;;6119684;23;20033;-62
2021/08/23 19:08:02;;;;;;;1.02;0.70;;;;;;;;;;6146005;23;20029;-63